createdAt,value
2018-06-08T00:00:48.813Z,15.83
2018-06-08T00:03:16.280Z,15.60
2018-06-08T00:05:43.673Z,16.80
2018-06-08T00:08:11.000Z,16.33
2018-06-08T00:10:38.312Z,16.83
2018-06-08T00:13:05.725Z,16.97
2018-06-08T00:15:33.084Z,17.00
2018-06-08T00:18:00.449Z,17.67
2018-06-08T00:20:27.875Z,15.97
2018-06-08T00:22:55.237Z,16.50
2018-06-08T00:25:22.592Z,16.40
2018-06-08T00:27:49.993Z,16.80
2018-06-08T00:30:17.369Z,16.23
2018-06-08T00:32:44.732Z,17.20
2018-06-08T00:35:12.090Z,16.80
2018-06-08T00:37:39.437Z,16.23
2018-06-08T00:40:06.796Z,15.80
2018-06-08T00:42:34.144Z,16.07
2018-06-08T00:45:01.540Z,16.87
2018-06-08T00:47:29.837Z,16.30
2018-06-08T00:49:57.168Z,17.20
2018-06-08T00:52:24.493Z,17.70
2018-06-08T00:54:51.872Z,15.90
2018-06-08T00:57:19.257Z,16.77
2018-06-08T00:59:46.581Z,17.60
2018-06-08T01:02:14.253Z,16.80
2018-06-08T01:04:41.576Z,18.10
2018-06-08T01:07:09.060Z,16.47
2018-06-08T01:09:36.513Z,16.67
2018-06-08T01:12:03.871Z,16.43
2018-06-08T01:14:33.296Z,17.10
2018-06-08T01:17:00.823Z,19.03
2018-06-08T01:19:28.596Z,16.67
2018-06-08T01:21:55.992Z,16.93
2018-06-08T01:24:23.324Z,17.17
2018-06-08T01:26:50.979Z,18.57
2018-06-08T01:29:18.286Z,16.57
2018-06-08T01:31:45.668Z,18.10
2018-06-08T01:34:13.015Z,17.43
2018-06-08T01:36:40.388Z,17.60
2018-06-08T01:39:09.514Z,17.17
2018-06-08T01:41:36.891Z,17.63
2018-06-08T01:44:04.551Z,17.03
2018-06-08T01:46:31.901Z,18.30
2018-06-08T01:48:59.212Z,17.40
2018-06-08T01:51:26.553Z,16.53
2018-06-08T01:53:53.908Z,17.60
2018-06-08T01:56:21.265Z,17.77
2018-06-08T01:58:48.644Z,16.50
2018-06-08T02:01:15.967Z,18.10
2018-06-08T02:03:43.333Z,18.07
2018-06-08T02:06:10.684Z,18.20
2018-06-08T02:08:38.092Z,18.80
2018-06-08T02:11:05.489Z,18.30
2018-06-08T02:13:33.391Z,17.70
2018-06-08T02:16:00.741Z,17.87
2018-06-08T02:18:28.048Z,16.60
2018-06-08T02:20:55.441Z,17.33
2018-06-08T02:23:22.798Z,17.13
2018-06-08T02:25:50.120Z,17.80
2018-06-08T02:28:17.457Z,17.80
2018-06-08T02:30:44.804Z,17.30
2018-06-08T02:33:12.241Z,15.80
2018-06-08T02:35:39.596Z,18.23
2018-06-08T02:38:07.750Z,18.60
2018-06-08T02:40:35.089Z,17.90
2018-06-08T02:43:02.499Z,18.30
2018-06-08T02:45:29.805Z,19.33
2018-06-08T02:47:57.268Z,18.80
2018-06-08T02:50:24.593Z,17.37
2018-06-08T02:52:51.928Z,18.77
2018-06-08T02:55:19.329Z,17.27
2018-06-08T02:57:47.661Z,19.63
2018-06-08T03:00:14.999Z,19.37
2018-06-08T03:02:42.336Z,17.90
2018-06-08T03:05:09.690Z,18.43
2018-06-08T03:07:37.040Z,17.83
2018-06-08T03:10:04.380Z,17.43
2018-06-08T03:12:31.760Z,18.47
2018-06-08T03:14:59.091Z,17.93
2018-06-08T03:17:26.388Z,19.20
2018-06-08T03:19:53.741Z,19.90
2018-06-08T03:22:21.077Z,19.53
2018-06-08T03:24:48.505Z,20.40
2018-06-08T03:27:15.899Z,19.93
2018-06-08T03:29:43.303Z,19.33
2018-06-08T03:32:10.712Z,18.60
2018-06-08T03:34:38.072Z,19.67
2018-06-08T03:37:05.476Z,19.53
2018-06-08T03:39:32.801Z,20.07
2018-06-08T03:42:00.337Z,19.47
2018-06-08T03:44:27.667Z,18.73
2018-06-08T03:46:55.058Z,19.20
2018-06-08T03:49:22.404Z,18.47
2018-06-08T03:51:49.736Z,19.50
2018-06-08T03:54:17.097Z,19.50
2018-06-08T03:56:48.076Z,17.67
2018-06-08T03:59:16.019Z,17.03
2018-06-08T04:01:43.356Z,18.87
2018-06-08T04:04:10.717Z,18.50
2018-06-08T04:06:38.056Z,18.37
2018-06-08T04:09:06.615Z,17.20
2018-06-08T04:11:33.998Z,19.10
2018-06-08T04:14:01.351Z,19.97
2018-06-08T04:16:28.705Z,19.33
2018-06-08T04:18:56.149Z,17.67
2018-06-08T04:21:23.532Z,20.13
2018-06-08T04:23:50.932Z,18.70
2018-06-08T04:26:18.388Z,20.40
2018-06-08T04:28:48.415Z,19.67
2018-06-08T04:31:15.756Z,19.87
2018-06-08T04:33:43.240Z,19.47
2018-06-08T04:36:10.639Z,22.53
2018-06-08T04:38:37.967Z,18.90
2018-06-08T04:41:06.831Z,19.70
2018-06-08T04:43:34.380Z,17.47
2018-06-08T04:46:01.917Z,19.33
2018-06-08T04:48:29.532Z,19.40
2018-06-08T04:50:57.504Z,20.00
2018-06-08T04:53:24.856Z,19.97
2018-06-08T04:55:52.197Z,18.23
2018-06-08T04:58:19.541Z,19.63
2018-06-08T05:00:46.892Z,19.63
2018-06-08T05:03:14.261Z,22.90
2018-06-08T05:05:41.593Z,20.70
2018-06-08T05:08:08.929Z,22.43
2018-06-08T05:10:36.263Z,23.20
2018-06-08T05:13:03.687Z,24.33
2018-06-08T05:15:31.036Z,21.70
2018-06-08T05:17:58.362Z,22.50
2018-06-08T05:20:25.731Z,23.43
2018-06-08T05:22:53.096Z,22.10
2018-06-08T05:25:20.465Z,23.50
2018-06-08T05:27:47.904Z,23.10
2018-06-08T05:30:17.963Z,22.43
2018-06-08T05:32:45.382Z,21.90
2018-06-08T05:35:12.731Z,20.57
2018-06-08T05:37:40.084Z,23.23
2018-06-08T05:40:07.474Z,21.03
2018-06-08T05:42:34.819Z,20.20
2018-06-08T05:45:02.165Z,20.57
2018-06-08T05:47:29.603Z,21.03
2018-06-08T05:49:56.937Z,21.90
2018-06-08T05:52:24.316Z,21.73
2018-06-08T05:54:51.699Z,20.10
2018-06-08T05:57:19.067Z,21.40
2018-06-08T05:59:46.447Z,20.27
2018-06-08T06:02:13.801Z,21.67
2018-06-08T06:04:41.181Z,19.67
2018-06-08T06:07:08.537Z,21.27
2018-06-08T06:09:35.887Z,21.53
2018-06-08T06:12:03.285Z,22.33
2018-06-08T06:14:30.662Z,22.07
2018-06-08T06:16:58.055Z,22.47
2018-06-08T06:19:25.425Z,21.73
2018-06-08T06:21:52.806Z,21.90
2018-06-08T06:24:20.142Z,21.57
2018-06-08T06:26:47.501Z,22.40
2018-06-08T06:29:14.839Z,23.13
2018-06-08T06:31:42.223Z,23.57
2018-06-08T06:34:09.587Z,22.67
2018-06-08T06:36:36.989Z,23.57
2018-06-08T06:39:06.308Z,26.77
2018-06-08T06:41:33.680Z,23.70
2018-06-08T06:44:01.042Z,22.50
2018-06-08T06:46:28.368Z,23.30
2018-06-08T06:48:55.768Z,25.47
2018-06-08T06:51:23.144Z,23.80
2018-06-08T06:53:50.629Z,24.33
2018-06-08T06:56:17.996Z,22.33
2018-06-08T06:58:45.314Z,24.83
2018-06-08T07:01:12.597Z,24.10
2018-06-08T07:03:39.882Z,23.37
2018-06-08T07:06:07.203Z,23.37
2018-06-08T07:08:34.558Z,22.67
2018-06-08T07:11:02.057Z,24.90
2018-06-08T07:13:29.405Z,23.63
2018-06-08T07:15:56.777Z,23.67
2018-06-08T07:18:24.141Z,21.63
2018-06-08T07:20:51.516Z,21.87
2018-06-08T07:23:18.880Z,20.10
2018-06-08T07:25:46.258Z,21.37
2018-06-08T07:28:13.617Z,21.37
2018-06-08T07:30:40.972Z,21.67
2018-06-08T07:33:08.321Z,21.30
2018-06-08T07:35:35.681Z,21.20
2018-06-08T07:38:03.081Z,22.10
2018-06-08T07:40:30.452Z,21.33
2018-06-08T07:42:57.846Z,20.73
2018-06-08T07:45:25.205Z,20.50
2018-06-08T07:47:52.600Z,19.50
2018-06-08T07:50:19.977Z,22.30
2018-06-08T07:52:47.324Z,19.97
2018-06-08T07:55:14.665Z,20.80
2018-06-08T07:57:42.047Z,22.13
2018-06-08T08:00:09.461Z,19.20
2018-06-08T08:02:36.817Z,19.40
2018-06-08T08:05:04.151Z,18.37
2018-06-08T08:07:31.604Z,20.43
2018-06-08T08:09:58.957Z,21.17
2018-06-08T08:12:26.280Z,20.03
2018-06-08T08:14:53.704Z,18.63
2018-06-08T08:17:21.051Z,18.47
2018-06-08T08:19:48.429Z,20.00
2018-06-08T08:22:15.964Z,20.97
2018-06-08T08:24:43.338Z,19.87
2018-06-08T08:27:10.673Z,19.10
2018-06-08T08:29:38.033Z,22.13
2018-06-08T08:32:05.403Z,21.63
2018-06-08T08:34:32.728Z,20.30
2018-06-08T08:37:00.113Z,19.57
2018-06-08T08:39:27.519Z,23.73
2018-06-08T08:41:54.957Z,26.37
2018-06-08T08:44:29.172Z,25.83
2018-06-08T08:46:56.597Z,22.37
2018-06-08T08:49:23.916Z,19.00
2018-06-08T08:51:51.272Z,20.40
2018-06-08T08:54:18.631Z,19.57
2018-06-08T08:56:46.000Z,22.80
2018-06-08T08:59:13.382Z,22.90
2018-06-08T09:01:40.767Z,17.87
2018-06-08T09:04:08.144Z,14.80
2018-06-08T09:06:35.511Z,15.20
2018-06-08T09:09:02.993Z,13.70
2018-06-08T09:11:30.393Z,13.93
2018-06-08T09:13:57.761Z,14.17
2018-06-08T09:16:25.167Z,12.97
2018-06-08T09:18:52.544Z,14.33
2018-06-08T09:21:19.961Z,13.47
2018-06-08T09:23:47.312Z,14.00
2018-06-08T09:26:14.736Z,14.47
2018-06-08T09:28:42.205Z,13.40
2018-06-08T09:31:09.616Z,14.00
2018-06-08T09:33:36.952Z,13.13
2018-06-08T09:36:04.386Z,12.37
2018-06-08T09:38:31.748Z,13.97
2018-06-08T09:40:59.129Z,13.83
2018-06-08T09:43:26.489Z,12.97
2018-06-08T09:45:53.871Z,13.60
2018-06-08T09:48:21.227Z,12.20
2018-06-08T09:50:48.649Z,11.67
2018-06-08T09:53:16.048Z,12.67
2018-06-08T09:55:43.431Z,13.40
2018-06-08T09:58:10.789Z,13.77
2018-06-08T10:00:43.020Z,12.13
2018-06-08T10:03:10.386Z,13.40
2018-06-08T10:05:38.314Z,13.90
2018-06-08T10:08:05.992Z,12.83
2018-06-08T10:10:33.385Z,13.07
2018-06-08T10:13:00.763Z,12.20
2018-06-08T10:15:28.108Z,12.60
2018-06-08T10:17:55.525Z,14.53
2018-06-08T10:20:22.895Z,13.17
2018-06-08T10:22:50.290Z,14.47
2018-06-08T10:25:17.705Z,13.43
2018-06-08T10:27:45.058Z,13.70
2018-06-08T10:30:12.472Z,14.17
2018-06-08T10:32:39.826Z,13.10
2018-06-08T10:35:07.215Z,15.17
2018-06-08T10:37:34.568Z,13.67
2018-06-08T10:40:02.889Z,12.10
2018-06-08T10:42:30.521Z,12.53
2018-06-08T10:44:57.882Z,12.47
2018-06-08T10:47:25.258Z,14.27
2018-06-08T10:49:52.640Z,13.63
2018-06-08T10:52:20.042Z,13.57
2018-06-08T10:54:47.410Z,13.53
2018-06-08T10:57:14.834Z,12.50
2018-06-08T10:59:43.641Z,12.13
2018-06-08T11:02:11.001Z,12.70
2018-06-08T11:04:38.372Z,12.47
2018-06-08T11:07:05.724Z,13.27
2018-06-08T11:09:33.250Z,12.43
2018-06-08T11:12:00.769Z,11.90
2018-06-08T11:14:28.145Z,13.67
2018-06-08T11:16:55.529Z,14.27
2018-06-08T11:19:22.968Z,12.47
2018-06-08T11:21:50.316Z,12.77
2018-06-08T11:24:17.913Z,13.30
2018-06-08T11:26:45.256Z,13.63
2018-06-08T11:29:12.616Z,11.80
2018-06-08T11:31:40.050Z,12.60
2018-06-08T11:34:07.421Z,13.23
2018-06-08T11:36:34.764Z,14.17
2018-06-08T11:39:02.175Z,13.20
2018-06-08T11:41:29.494Z,13.70
2018-06-08T11:43:56.873Z,14.00
2018-06-08T11:46:24.200Z,14.50
2018-06-08T11:48:51.563Z,13.80
2018-06-08T11:51:18.981Z,12.83
2018-06-08T11:53:46.405Z,12.83
2018-06-08T11:56:14.149Z,13.00
2018-06-08T11:58:41.548Z,12.87
2018-06-08T12:01:09.205Z,13.30
2018-06-08T12:03:36.731Z,13.77
2018-06-08T12:06:04.356Z,14.10
2018-06-08T12:08:31.709Z,12.90
2018-06-08T12:10:59.065Z,13.73
2018-06-08T12:13:26.440Z,13.43
2018-06-08T12:15:53.832Z,12.70
2018-06-08T12:18:21.211Z,13.53
2018-06-08T12:20:48.590Z,13.70
2018-06-08T12:23:15.956Z,14.30
2018-06-08T12:25:43.290Z,13.37
2018-06-08T12:28:10.643Z,13.13
2018-06-08T12:30:38.011Z,14.03
2018-06-08T12:33:05.464Z,13.03
2018-06-08T12:35:32.875Z,13.67
2018-06-08T12:38:00.232Z,12.70
2018-06-08T12:40:27.565Z,12.43
2018-06-08T12:42:54.988Z,14.20
2018-06-08T12:45:22.381Z,13.17
2018-06-08T12:47:49.757Z,13.57
2018-06-08T12:50:17.158Z,13.50
2018-06-08T12:52:44.493Z,13.30
2018-06-08T12:55:11.832Z,14.87
2018-06-08T12:57:39.233Z,18.27
2018-06-08T13:00:06.677Z,14.33
2018-06-08T13:02:34.013Z,15.30
2018-06-08T13:05:01.368Z,14.30
2018-06-08T13:07:28.725Z,14.33
2018-06-08T13:09:56.080Z,13.57
2018-06-08T13:12:23.436Z,14.40
2018-06-08T13:14:50.823Z,15.00
2018-06-08T13:17:18.175Z,15.03
2018-06-08T13:19:45.565Z,14.00
2018-06-08T13:22:12.963Z,14.77
2018-06-08T13:24:40.314Z,13.70
2018-06-08T13:27:07.681Z,14.90
2018-06-08T13:29:35.052Z,14.17
2018-06-08T13:32:02.409Z,14.40
2018-06-08T13:34:29.794Z,14.57
2018-06-08T13:36:57.142Z,15.00
2018-06-08T13:39:24.497Z,14.93
2018-06-08T13:41:51.834Z,14.10
2018-06-08T13:44:19.204Z,14.53
2018-06-08T13:46:47.161Z,14.73
2018-06-08T13:49:14.546Z,15.43
2018-06-08T13:51:41.893Z,15.57
2018-06-08T13:54:09.273Z,15.47
2018-06-08T13:56:36.608Z,15.53
2018-06-08T13:59:04.053Z,15.77
2018-06-08T14:01:31.436Z,14.43
2018-06-08T14:03:58.765Z,14.93
2018-06-08T14:06:26.111Z,15.40
2018-06-08T14:08:53.440Z,14.37
2018-06-08T14:11:20.843Z,14.60
2018-06-08T14:13:48.205Z,14.80
2018-06-08T14:16:15.617Z,13.90
2018-06-08T14:18:43.092Z,15.17
2018-06-08T14:21:10.459Z,14.43
2018-06-08T14:23:37.800Z,14.97
2018-06-08T14:26:05.214Z,15.23
2018-06-08T14:28:32.566Z,15.83
2018-06-08T14:30:59.901Z,15.47
2018-06-08T14:33:27.260Z,15.53
2018-06-08T14:35:54.594Z,15.47
2018-06-08T14:38:22.019Z,14.73
2018-06-08T14:40:49.314Z,13.30
2018-06-08T14:43:16.810Z,14.60
2018-06-08T14:45:44.193Z,13.87
2018-06-08T14:48:11.549Z,15.50
2018-06-08T14:50:39.041Z,16.33
2018-06-08T14:53:06.536Z,15.93
2018-06-08T14:55:33.886Z,15.20
2018-06-08T14:58:01.284Z,15.83
2018-06-08T15:00:28.732Z,16.20
2018-06-08T15:02:56.124Z,19.10
2018-06-08T15:05:23.459Z,16.33
2018-06-08T15:07:50.875Z,14.87
2018-06-08T15:10:18.200Z,14.37
2018-06-08T15:12:45.523Z,16.23
2018-06-08T15:15:12.954Z,13.80
2018-06-08T15:17:40.741Z,15.27
2018-06-08T15:20:09.005Z,14.43
2018-06-08T15:22:37.218Z,15.00
2018-06-08T15:25:04.787Z,15.00
2018-06-08T15:27:32.148Z,15.07
2018-06-08T15:29:59.527Z,15.27
2018-06-08T15:32:26.916Z,15.37
2018-06-08T15:34:54.292Z,15.30
2018-06-08T15:37:22.029Z,14.93
2018-06-08T15:39:49.389Z,15.37
2018-06-08T15:42:16.849Z,14.97
2018-06-08T15:44:44.231Z,15.70
2018-06-08T15:47:11.981Z,15.80
2018-06-08T15:49:39.368Z,15.40
2018-06-08T15:52:07.897Z,14.60
2018-06-08T15:54:35.842Z,14.83
2018-06-08T15:57:03.265Z,16.57
2018-06-08T15:59:34.485Z,15.87
2018-06-08T16:02:04.788Z,16.07
2018-06-08T16:04:33.812Z,16.13
2018-06-08T16:07:02.390Z,16.70
2018-06-08T16:09:31.386Z,15.57
2018-06-08T16:11:59.658Z,15.40
2018-06-08T16:14:29.213Z,16.07
2018-06-08T16:16:58.178Z,15.90
2018-06-08T16:19:27.568Z,16.87
2018-06-08T16:21:55.571Z,17.33
2018-06-08T16:24:23.085Z,17.50
2018-06-08T16:26:51.622Z,17.57
2018-06-08T16:29:19.968Z,17.37
2018-06-08T16:31:48.516Z,16.03
2018-06-08T16:34:16.799Z,16.50
2018-06-08T16:36:48.409Z,16.60
2018-06-08T16:39:15.818Z,18.90
2018-06-08T16:41:44.685Z,16.90
2018-06-08T16:44:14.078Z,19.60
2018-06-08T16:46:43.655Z,18.50
2018-06-08T16:49:12.053Z,18.30
2018-06-08T16:51:41.357Z,16.27
2018-06-08T16:54:10.508Z,18.13
2018-06-08T16:56:38.971Z,19.53
2018-06-08T16:59:06.292Z,18.80
2018-06-08T17:01:33.669Z,18.93
2018-06-08T17:04:02.211Z,19.20
2018-06-08T17:06:32.175Z,19.73
2018-06-08T17:09:01.971Z,18.50
2018-06-08T17:11:31.747Z,19.20
2018-06-08T17:13:59.201Z,17.70
2018-06-08T17:16:26.574Z,19.00
2018-06-08T17:18:55.217Z,21.50
2018-06-08T17:21:26.833Z,19.83
2018-06-08T17:23:56.971Z,20.40
2018-06-08T17:26:24.387Z,21.23
2018-06-08T17:28:51.712Z,21.03
2018-06-08T17:31:19.123Z,24.20
2018-06-08T17:33:46.463Z,26.30
2018-06-08T17:36:13.817Z,22.70
2018-06-08T17:38:41.223Z,22.50
2018-06-08T17:41:08.629Z,22.73
2018-06-08T17:43:35.952Z,19.93
2018-06-08T17:46:03.333Z,22.37
2018-06-08T17:48:30.697Z,20.63
2018-06-08T17:50:58.043Z,21.77
2018-06-08T17:53:25.408Z,21.30
2018-06-08T17:55:53.434Z,20.00
2018-06-08T17:58:20.772Z,22.07
2018-06-08T18:00:48.176Z,22.30
2018-06-08T18:03:15.501Z,21.27
2018-06-08T18:05:42.866Z,21.00
2018-06-08T18:08:10.252Z,22.47
2018-06-08T18:10:37.603Z,20.40
2018-06-08T18:13:04.999Z,22.77
2018-06-08T18:15:32.326Z,23.70
2018-06-08T18:17:59.765Z,25.10
2018-06-08T18:20:27.113Z,26.03
2018-06-08T18:22:54.512Z,26.70
2018-06-08T18:25:22.886Z,22.50
2018-06-08T18:27:50.198Z,23.77
2018-06-08T18:30:17.577Z,23.43
2018-06-08T18:32:44.980Z,24.80
2018-06-08T18:35:12.396Z,24.87
2018-06-08T18:37:39.756Z,25.23
2018-06-08T18:40:07.093Z,25.10
2018-06-08T18:42:35.167Z,25.27
2018-06-08T18:45:03.378Z,27.10
2018-06-08T18:47:30.722Z,26.23
2018-06-08T18:49:58.104Z,23.50
2018-06-08T18:52:25.469Z,26.10
2018-06-08T18:54:52.844Z,28.03
2018-06-08T18:57:20.256Z,26.37
2018-06-08T18:59:47.605Z,25.87
2018-06-08T19:02:14.984Z,26.40
2018-06-08T19:04:42.383Z,25.73
2018-06-08T19:07:09.927Z,26.93
2018-06-08T19:09:37.306Z,25.33
2018-06-08T19:12:04.764Z,25.00
2018-06-08T19:14:32.261Z,24.30
2018-06-08T19:16:59.607Z,30.70
2018-06-08T19:19:26.960Z,47.23
2018-06-08T19:21:55.477Z,37.80
2018-06-08T19:24:23.128Z,39.57
2018-06-08T19:26:50.531Z,35.43
2018-06-08T19:29:17.880Z,31.77
2018-06-08T19:31:45.256Z,35.20
2018-06-08T19:34:13.302Z,30.23
2018-06-08T19:36:40.732Z,31.13
2018-06-08T19:39:12.511Z,28.00
2018-06-08T19:41:43.585Z,27.67
2018-06-08T19:44:13.571Z,29.60
2018-06-08T19:46:43.557Z,26.90
2018-06-08T19:49:11.098Z,28.40
2018-06-08T19:51:38.859Z,28.77
2018-06-08T19:54:08.365Z,30.17
2018-06-08T19:56:36.220Z,26.80
2018-06-08T19:59:08.423Z,28.83
2018-06-08T20:01:36.432Z,27.00
2018-06-08T20:04:05.410Z,30.93
2018-06-08T20:06:34.488Z,28.00
2018-06-08T20:09:02.773Z,32.40
2018-06-08T20:11:30.630Z,31.07
2018-06-08T20:13:59.496Z,29.37
2018-06-08T20:16:26.864Z,27.80
2018-06-08T20:18:55.374Z,28.20
2018-06-08T20:21:22.751Z,28.97
2018-06-08T20:23:50.738Z,27.37
2018-06-08T20:26:20.224Z,27.37
2018-06-08T20:28:50.143Z,28.40
2018-06-08T20:31:18.443Z,26.57
2018-06-08T20:33:46.993Z,26.57
2018-06-08T20:36:15.496Z,25.27
2018-06-08T20:38:43.991Z,23.50
2018-06-08T20:41:11.325Z,24.40
2018-06-08T20:43:38.733Z,24.47
2018-06-08T20:46:06.164Z,22.63
2018-06-08T20:48:33.568Z,21.87
2018-06-08T20:51:01.031Z,23.13
2018-06-08T20:53:28.398Z,24.43
2018-06-08T20:55:55.748Z,21.63
2018-06-08T20:58:29.071Z,24.10
2018-06-08T21:00:57.060Z,21.50
2018-06-08T21:03:24.434Z,22.30
2018-06-08T21:05:51.778Z,20.93
2018-06-08T21:08:19.121Z,21.17
2018-06-08T21:10:46.458Z,21.63
2018-06-08T21:13:13.798Z,20.30
2018-06-08T21:15:41.193Z,19.57
2018-06-08T21:18:08.586Z,20.23
2018-06-08T21:20:35.949Z,18.20
2018-06-08T21:23:03.304Z,18.53
2018-06-08T21:25:30.638Z,19.60
2018-06-08T21:27:57.954Z,17.53
2018-06-08T21:30:25.321Z,16.07
2018-06-08T21:32:52.712Z,16.20
2018-06-08T21:35:20.104Z,17.13
2018-06-08T21:37:47.480Z,19.20
2018-06-08T21:40:14.847Z,16.37
2018-06-08T21:42:42.218Z,17.97
2018-06-08T21:45:09.556Z,16.57
2018-06-08T21:47:36.864Z,14.40
2018-06-08T21:50:04.222Z,21.40
2018-06-08T21:52:31.559Z,13.53
2018-06-08T21:54:58.945Z,15.60
2018-06-08T21:57:26.307Z,14.50
2018-06-08T21:59:53.616Z,14.07
2018-06-08T22:02:21.052Z,13.07
2018-06-08T22:04:48.447Z,13.03
2018-06-08T22:07:16.029Z,14.50
2018-06-08T22:09:43.385Z,13.00
2018-06-08T22:12:10.710Z,12.37
2018-06-08T22:14:38.101Z,12.90
2018-06-08T22:17:05.458Z,13.17
2018-06-08T22:19:32.808Z,13.50
2018-06-08T22:22:00.163Z,11.90
2018-06-08T22:24:27.722Z,11.90
2018-06-08T22:26:55.059Z,12.47
2018-06-08T22:29:22.374Z,12.57
2018-06-08T22:31:49.728Z,12.10
2018-06-08T22:34:17.084Z,11.33
2018-06-08T22:36:44.396Z,12.47
2018-06-08T22:39:12.121Z,11.67
2018-06-08T22:41:39.560Z,12.03
2018-06-08T22:44:06.948Z,12.50
2018-06-08T22:46:34.270Z,10.87
2018-06-08T22:49:01.590Z,16.70
2018-06-08T22:51:28.953Z,11.63
2018-06-08T22:53:56.303Z,12.30
2018-06-08T22:56:23.797Z,11.93
2018-06-08T22:58:51.212Z,12.10
2018-06-08T23:01:18.673Z,11.93
2018-06-08T23:03:46.041Z,11.60
2018-06-08T23:06:13.524Z,12.93
2018-06-08T23:08:40.863Z,12.90
2018-06-08T23:11:08.249Z,13.53
2018-06-08T23:13:35.596Z,13.77
2018-06-08T23:16:02.933Z,12.97
2018-06-08T23:18:30.361Z,14.10
2018-06-08T23:20:57.724Z,14.53
2018-06-08T23:23:25.629Z,13.23
2018-06-08T23:25:53.468Z,13.23
2018-06-08T23:28:20.808Z,13.83
2018-06-08T23:30:48.145Z,13.37
2018-06-08T23:33:15.622Z,13.90
2018-06-08T23:35:42.992Z,14.17
2018-06-08T23:38:10.316Z,14.57
2018-06-08T23:40:37.699Z,14.67
2018-06-08T23:43:05.256Z,13.10
2018-06-08T23:45:32.612Z,13.07
2018-06-08T23:47:59.941Z,13.77
2018-06-08T23:50:27.337Z,12.83
2018-06-08T23:52:54.689Z,13.70
2018-06-08T23:55:22.628Z,14.57
2018-06-08T23:57:50.039Z,12.97
